Search for airport 
image banner adimage banner adimage banner ad
image banner ad

11PA - Sherrie John Manor Heliport

Located in Mechanicsburg, United States

ICAO - 11PA, IATA -

Data provided by Airmate  

General information

Coordinates: N40°11'31" W75°18'48"
Elevation is 415 feet MSL.
 
View others Airports in Pennsylvania

Operational data

Special qualification required
Current time UTC:
Current local time:
Weather at : KLOM - Wings Field ( 7 km )
METAR: KLOM 091655Z AUTO 23007KT 10SM SCT044 OVC070 13/04 A3006 RMK AO2 T01320041
View NOTAMs / SUP AIP / TFR affecting this airport [VIEW]
Communications frequencies: [VIEW]

Runways:

Airport contact information

Address: Mechanicsburg United States

Satellite view of 11PA